sensor_id;sensor_type;location;lat;lon;timestamp;P1;durP1;ratioP1;P2;durP2;ratioP2
6406;SDS011;3236;51.022;6.818;2023-04-03T00:00:41;8.20;;;5.38;;
6406;SDS011;3236;51.022;6.818;2023-04-03T00:03:08;10.18;;;5.70;;
6406;SDS011;3236;51.022;6.818;2023-04-03T00:05:35;6.45;;;5.47;;
6406;SDS011;3236;51.022;6.818;2023-04-03T00:08:04;7.38;;;5.32;;
6406;SDS011;3236;51.022;6.818;2023-04-03T00:10:33;7.00;;;5.50;;
6406;SDS011;3236;51.022;6.818;2023-04-03T00:13:00;5.55;;;4.78;;
6406;SDS011;3236;51.022;6.818;2023-04-03T00:15:27;8.02;;;5.38;;
6406;SDS011;3236;51.022;6.818;2023-04-03T00:17:54;12.02;;;5.65;;
6406;SDS011;3236;51.022;6.818;2023-04-03T00:20:22;9.20;;;5.90;;
6406;SDS011;3236;51.022;6.818;2023-04-03T00:22:49;7.25;;;5.30;;
6406;SDS011;3236;51.022;6.818;2023-04-03T00:25:17;9.13;;;5.57;;
6406;SDS011;3236;51.022;6.818;2023-04-03T00:27:44;9.52;;;6.10;;
6406;SDS011;3236;51.022;6.818;2023-04-03T00:30:13;7.53;;;5.50;;
6406;SDS011;3236;51.022;6.818;2023-04-03T00:32:42;8.43;;;6.50;;
6406;SDS011;3236;51.022;6.818;2023-04-03T00:35:09;11.55;;;7.00;;
6406;SDS011;3236;51.022;6.818;2023-04-03T00:37:39;12.52;;;6.18;;
6406;SDS011;3236;51.022;6.818;2023-04-03T00:40:06;11.02;;;5.97;;
6406;SDS011;3236;51.022;6.818;2023-04-03T00:42:37;15.48;;;6.47;;
6406;SDS011;3236;51.022;6.818;2023-04-03T00:45:23;8.68;;;6.72;;
6406;SDS011;3236;51.022;6.818;2023-04-03T00:47:59;8.00;;;6.43;;
6406;SDS011;3236;51.022;6.818;2023-04-03T00:50:28;8.57;;;6.50;;
6406;SDS011;3236;51.022;6.818;2023-04-03T00:52:56;9.85;;;6.93;;
6406;SDS011;3236;51.022;6.818;2023-04-03T00:55:24;9.43;;;7.03;;
6406;SDS011;3236;51.022;6.818;2023-04-03T00:57:53;11.70;;;6.95;;
6406;SDS011;3236;51.022;6.818;2023-04-03T01:00:24;8.90;;;6.45;;
6406;SDS011;3236;51.022;6.818;2023-04-03T01:02:52;11.17;;;7.37;;
6406;SDS011;3236;51.022;6.818;2023-04-03T01:05:23;9.15;;;6.47;;
6406;SDS011;3236;51.022;6.818;2023-04-03T01:07:50;8.80;;;6.95;;
6406;SDS011;3236;51.022;6.818;2023-04-03T01:10:19;7.88;;;6.78;;
6406;SDS011;3236;51.022;6.818;2023-04-03T01:12:47;13.23;;;7.20;;
6406;SDS011;3236;51.022;6.818;2023-04-03T01:15:17;8.82;;;7.20;;
6406;SDS011;3236;51.022;6.818;2023-04-03T01:17:49;10.52;;;7.78;;
6406;SDS011;3236;51.022;6.818;2023-04-03T01:20:39;10.82;;;7.90;;
6406;SDS011;3236;51.022;6.818;2023-04-03T01:26:26;12.87;;;7.47;;
6406;SDS011;3236;51.022;6.818;2023-04-03T01:29:00;9.48;;;7.43;;
6406;SDS011;3236;51.022;6.818;2023-04-03T01:31:30;12.70;;;7.67;;
6406;SDS011;3236;51.022;6.818;2023-04-03T01:34:01;12.25;;;7.40;;
6406;SDS011;3236;51.022;6.818;2023-04-03T01:36:29;16.17;;;7.03;;
6406;SDS011;3236;51.022;6.818;2023-04-03T01:38:58;15.48;;;8.10;;
6406;SDS011;3236;51.022;6.818;2023-04-03T01:41:26;13.50;;;7.85;;
6406;SDS011;3236;51.022;6.818;2023-04-03T01:43:54;11.30;;;8.20;;
6406;SDS011;3236;51.022;6.818;2023-04-03T01:46:24;14.23;;;8.48;;
6406;SDS011;3236;51.022;6.818;2023-04-03T01:48:51;11.88;;;8.20;;
6406;SDS011;3236;51.022;6.818;2023-04-03T01:51:19;13.73;;;8.45;;
6406;SDS011;3236;51.022;6.818;2023-04-03T01:53:46;13.23;;;8.32;;
6406;SDS011;3236;51.022;6.818;2023-04-03T01:56:13;14.93;;;7.78;;
6406;SDS011;3236;51.022;6.818;2023-04-03T01:58:40;11.15;;;7.60;;
6406;SDS011;3236;51.022;6.818;2023-04-03T02:01:09;11.77;;;7.65;;
6406;SDS011;3236;51.022;6.818;2023-04-03T02:03:36;13.48;;;7.53;;
6406;SDS011;3236;51.022;6.818;2023-04-03T02:06:06;14.50;;;7.75;;
6406;SDS011;3236;51.022;6.818;2023-04-03T02:08:34;11.02;;;7.07;;
6406;SDS011;3236;51.022;6.818;2023-04-03T02:11:01;13.60;;;7.75;;
6406;SDS011;3236;51.022;6.818;2023-04-03T02:13:29;14.75;;;8.27;;
6406;SDS011;3236;51.022;6.818;2023-04-03T02:16:05;14.55;;;8.65;;
6406;SDS011;3236;51.022;6.818;2023-04-03T02:18:34;11.57;;;8.43;;
6406;SDS011;3236;51.022;6.818;2023-04-03T02:21:02;13.60;;;9.07;;
6406;SDS011;3236;51.022;6.818;2023-04-03T02:23:30;11.50;;;8.23;;
6406;SDS011;3236;51.022;6.818;2023-04-03T02:26:05;12.98;;;8.68;;
6406;SDS011;3236;51.022;6.818;2023-04-03T02:28:33;10.52;;;7.03;;
6406;SDS011;3236;51.022;6.818;2023-04-03T02:31:09;10.52;;;7.20;;
6406;SDS011;3236;51.022;6.818;2023-04-03T02:33:37;13.20;;;8.75;;
6406;SDS011;3236;51.022;6.818;2023-04-03T02:36:06;14.43;;;8.35;;
6406;SDS011;3236;51.022;6.818;2023-04-03T02:38:34;10.63;;;7.35;;
6406;SDS011;3236;51.022;6.818;2023-04-03T02:41:01;14.27;;;7.97;;
6406;SDS011;3236;51.022;6.818;2023-04-03T02:43:30;16.42;;;8.43;;
6406;SDS011;3236;51.022;6.818;2023-04-03T02:45:57;14.57;;;7.97;;
6406;SDS011;3236;51.022;6.818;2023-04-03T02:48:24;13.20;;;7.88;;
6406;SDS011;3236;51.022;6.818;2023-04-03T02:50:52;11.90;;;7.97;;
6406;SDS011;3236;51.022;6.818;2023-04-03T02:53:19;11.50;;;7.03;;
6406;SDS011;3236;51.022;6.818;2023-04-03T02:55:46;11.60;;;6.93;;
6406;SDS011;3236;51.022;6.818;2023-04-03T02:58:13;10.07;;;7.47;;
6406;SDS011;3236;51.022;6.818;2023-04-03T03:00:42;10.43;;;7.32;;
6406;SDS011;3236;51.022;6.818;2023-04-03T03:03:09;10.23;;;6.88;;
6406;SDS011;3236;51.022;6.818;2023-04-03T03:05:36;8.15;;;6.03;;
6406;SDS011;3236;51.022;6.818;2023-04-03T03:08:03;11.80;;;6.78;;
6406;SDS011;3236;51.022;6.818;2023-04-03T03:10:30;8.43;;;6.32;;
6406;SDS011;3236;51.022;6.818;2023-04-03T03:12:57;11.70;;;6.40;;
6406;SDS011;3236;51.022;6.818;2023-04-03T03:15:27;10.75;;;6.18;;
6406;SDS011;3236;51.022;6.818;2023-04-03T03:17:56;7.35;;;5.65;;
6406;SDS011;3236;51.022;6.818;2023-04-03T03:20:23;11.52;;;6.03;;
6406;SDS011;3236;51.022;6.818;2023-04-03T03:22:56;12.07;;;5.85;;
6406;SDS011;3236;51.022;6.818;2023-04-03T03:25:23;7.38;;;6.15;;
6406;SDS011;3236;51.022;6.818;2023-04-03T03:27:50;9.63;;;5.43;;
6406;SDS011;3236;51.022;6.818;2023-04-03T03:30:17;8.82;;;5.93;;
6406;SDS011;3236;51.022;6.818;2023-04-03T03:32:44;9.32;;;5.28;;
6406;SDS011;3236;51.022;6.818;2023-04-03T03:35:13;9.95;;;5.90;;
6406;SDS011;3236;51.022;6.818;2023-04-03T03:37:40;7.03;;;4.93;;
6406;SDS011;3236;51.022;6.818;2023-04-03T03:40:07;9.13;;;5.45;;
6406;SDS011;3236;51.022;6.818;2023-04-03T03:42:37;9.90;;;5.30;;
6406;SDS011;3236;51.022;6.818;2023-04-03T03:45:05;9.35;;;5.47;;
6406;SDS011;3236;51.022;6.818;2023-04-03T03:47:33;9.20;;;6.03;;
6406;SDS011;3236;51.022;6.818;2023-04-03T03:50:00;12.05;;;4.72;;
6406;SDS011;3236;51.022;6.818;2023-04-03T03:52:29;7.43;;;5.20;;
6406;SDS011;3236;51.022;6.818;2023-04-03T03:54:56;6.53;;;4.90;;
6406;SDS011;3236;51.022;6.818;2023-04-03T03:57:23;9.52;;;6.03;;
6406;SDS011;3236;51.022;6.818;2023-04-03T03:59:52;6.70;;;5.00;;
6406;SDS011;3236;51.022;6.818;2023-04-03T04:02:19;10.90;;;5.63;;
6406;SDS011;3236;51.022;6.818;2023-04-03T04:04:46;5.88;;;4.75;;
6406;SDS011;3236;51.022;6.818;2023-04-03T04:07:13;11.18;;;6.32;;
6406;SDS011;3236;51.022;6.818;2023-04-03T04:09:41;7.70;;;5.40;;
6406;SDS011;3236;51.022;6.818;2023-04-03T04:12:08;7.22;;;5.20;;
6406;SDS011;3236;51.022;6.818;2023-04-03T04:14:35;11.93;;;5.30;;
6406;SDS011;3236;51.022;6.818;2023-04-03T04:17:02;10.35;;;4.93;;
6406;SDS011;3236;51.022;6.818;2023-04-03T04:19:30;9.60;;;5.22;;
6406;SDS011;3236;51.022;6.818;2023-04-03T04:22:01;6.45;;;4.75;;
6406;SDS011;3236;51.022;6.818;2023-04-03T04:24:28;6.93;;;4.57;;
6406;SDS011;3236;51.022;6.818;2023-04-03T04:26:56;7.75;;;4.35;;
6406;SDS011;3236;51.022;6.818;2023-04-03T04:29:23;9.40;;;5.18;;
6406;SDS011;3236;51.022;6.818;2023-04-03T04:31:51;6.00;;;4.32;;
6406;SDS011;3236;51.022;6.818;2023-04-03T04:34:18;9.07;;;4.65;;
6406;SDS011;3236;51.022;6.818;2023-04-03T04:36:45;8.70;;;4.32;;
6406;SDS011;3236;51.022;6.818;2023-04-03T04:39:12;6.90;;;4.45;;
6406;SDS011;3236;51.022;6.818;2023-04-03T04:41:45;8.00;;;4.30;;
6406;SDS011;3236;51.022;6.818;2023-04-03T04:44:16;6.40;;;4.55;;
6406;SDS011;3236;51.022;6.818;2023-04-03T04:46:43;6.22;;;4.30;;
6406;SDS011;3236;51.022;6.818;2023-04-03T04:49:10;6.30;;;4.25;;
6406;SDS011;3236;51.022;6.818;2023-04-03T04:51:37;5.95;;;3.80;;
6406;SDS011;3236;51.022;6.818;2023-04-03T04:54:04;7.35;;;4.57;;
6406;SDS011;3236;51.022;6.818;2023-04-03T04:56:35;7.07;;;4.13;;
6406;SDS011;3236;51.022;6.818;2023-04-03T04:59:02;9.33;;;3.73;;
6406;SDS011;3236;51.022;6.818;2023-04-03T05:01:32;8.23;;;3.80;;
6406;SDS011;3236;51.022;6.818;2023-04-03T05:04:00;10.25;;;4.25;;
6406;SDS011;3236;51.022;6.818;2023-04-03T05:06:30;7.25;;;3.70;;
6406;SDS011;3236;51.022;6.818;2023-04-03T05:09:00;5.18;;;3.45;;
6406;SDS011;3236;51.022;6.818;2023-04-03T05:11:28;12.00;;;4.00;;
6406;SDS011;3236;51.022;6.818;2023-04-03T05:13:58;7.97;;;4.40;;
6406;SDS011;3236;51.022;6.818;2023-04-03T05:16:27;7.18;;;3.72;;
6406;SDS011;3236;51.022;6.818;2023-04-03T05:18:59;5.03;;;3.85;;
6406;SDS011;3236;51.022;6.818;2023-04-03T05:23:57;7.05;;;3.30;;
6406;SDS011;3236;51.022;6.818;2023-04-03T05:26:24;7.03;;;3.45;;
6406;SDS011;3236;51.022;6.818;2023-04-03T05:28:52;9.85;;;3.90;;
6406;SDS011;3236;51.022;6.818;2023-04-03T05:31:19;8.45;;;3.70;;
6406;SDS011;3236;51.022;6.818;2023-04-03T05:33:46;6.95;;;3.92;;
6406;SDS011;3236;51.022;6.818;2023-04-03T05:36:15;7.70;;;3.88;;
6406;SDS011;3236;51.022;6.818;2023-04-03T05:38:42;6.57;;;3.97;;
6406;SDS011;3236;51.022;6.818;2023-04-03T05:41:09;10.98;;;3.83;;
6406;SDS011;3236;51.022;6.818;2023-04-03T05:43:40;6.95;;;3.90;;
6406;SDS011;3236;51.022;6.818;2023-04-03T05:46:22;6.65;;;4.22;;
6406;SDS011;3236;51.022;6.818;2023-04-03T05:48:49;9.50;;;4.80;;
6406;SDS011;3236;51.022;6.818;2023-04-03T05:51:18;9.55;;;4.30;;
6406;SDS011;3236;51.022;6.818;2023-04-03T05:53:47;6.78;;;4.00;;
6406;SDS011;3236;51.022;6.818;2023-04-03T05:56:21;8.05;;;3.90;;
6406;SDS011;3236;51.022;6.818;2023-04-03T05:58:51;15.93;;;4.97;;
6406;SDS011;3236;51.022;6.818;2023-04-03T06:01:18;7.88;;;3.92;;
6406;SDS011;3236;51.022;6.818;2023-04-03T06:03:45;7.43;;;3.85;;
6406;SDS011;3236;51.022;6.818;2023-04-03T06:06:13;9.23;;;4.13;;
6406;SDS011;3236;51.022;6.818;2023-04-03T06:08:45;6.47;;;2.83;;
6406;SDS011;3236;51.022;6.818;2023-04-03T06:11:19;7.93;;;3.42;;
6406;SDS011;3236;51.022;6.818;2023-04-03T06:13:47;7.90;;;3.38;;
6406;SDS011;3236;51.022;6.818;2023-04-03T06:16:14;7.63;;;3.70;;
6406;SDS011;3236;51.022;6.818;2023-04-03T06:18:43;11.30;;;3.58;;
6406;SDS011;3236;51.022;6.818;2023-04-03T06:21:10;4.40;;;3.28;;
6406;SDS011;3236;51.022;6.818;2023-04-03T06:23:37;4.03;;;3.33;;
6406;SDS011;3236;51.022;6.818;2023-04-03T06:26:07;6.03;;;3.28;;
6406;SDS011;3236;51.022;6.818;2023-04-03T06:28:35;7.47;;;3.25;;
6406;SDS011;3236;51.022;6.818;2023-04-03T06:31:03;4.93;;;3.25;;
6406;SDS011;3236;51.022;6.818;2023-04-03T06:33:30;4.97;;;3.35;;
6406;SDS011;3236;51.022;6.818;2023-04-03T06:35:57;4.18;;;2.53;;
6406;SDS011;3236;51.022;6.818;2023-04-03T06:38:24;7.00;;;2.85;;
6406;SDS011;3236;51.022;6.818;2023-04-03T06:40:52;4.60;;;2.70;;
6406;SDS011;3236;51.022;6.818;2023-04-03T06:43:20;4.28;;;2.65;;
6406;SDS011;3236;51.022;6.818;2023-04-03T06:45:48;5.38;;;3.10;;
6406;SDS011;3236;51.022;6.818;2023-04-03T06:48:16;5.70;;;2.55;;
6406;SDS011;3236;51.022;6.818;2023-04-03T06:50:43;4.95;;;2.63;;
6406;SDS011;3236;51.022;6.818;2023-04-03T06:53:10;6.18;;;2.33;;
6406;SDS011;3236;51.022;6.818;2023-04-03T06:55:38;3.88;;;2.28;;
6406;SDS011;3236;51.022;6.818;2023-04-03T06:58:06;3.10;;;2.45;;
6406;SDS011;3236;51.022;6.818;2023-04-03T07:00:35;3.92;;;2.28;;
6406;SDS011;3236;51.022;6.818;2023-04-03T07:03:04;7.63;;;2.72;;
6406;SDS011;3236;51.022;6.818;2023-04-03T07:05:32;3.92;;;2.38;;
6406;SDS011;3236;51.022;6.818;2023-04-03T07:07:59;5.38;;;2.45;;
6406;SDS011;3236;51.022;6.818;2023-04-03T07:10:26;7.60;;;2.92;;
6406;SDS011;3236;51.022;6.818;2023-04-03T07:12:56;10.23;;;2.47;;
6406;SDS011;3236;51.022;6.818;2023-04-03T07:15:23;3.97;;;1.85;;
6406;SDS011;3236;51.022;6.818;2023-04-03T07:17:52;4.00;;;2.17;;
6406;SDS011;3236;51.022;6.818;2023-04-03T07:20:19;4.95;;;1.95;;
6406;SDS011;3236;51.022;6.818;2023-04-03T07:22:46;4.10;;;1.90;;
6406;SDS011;3236;51.022;6.818;2023-04-03T07:25:13;5.65;;;2.30;;
6406;SDS011;3236;51.022;6.818;2023-04-03T07:27:40;4.68;;;1.92;;
6406;SDS011;3236;51.022;6.818;2023-04-03T07:30:08;6.45;;;2.40;;
6406;SDS011;3236;51.022;6.818;2023-04-03T07:32:36;9.07;;;1.80;;
6406;SDS011;3236;51.022;6.818;2023-04-03T07:35:05;2.20;;;1.55;;
6406;SDS011;3236;51.022;6.818;2023-04-03T07:37:32;4.45;;;1.80;;
6406;SDS011;3236;51.022;6.818;2023-04-03T07:39:59;4.10;;;1.75;;
6406;SDS011;3236;51.022;6.818;2023-04-03T07:42:28;6.35;;;2.08;;
6406;SDS011;3236;51.022;6.818;2023-04-03T07:44:56;5.05;;;1.70;;
6406;SDS011;3236;51.022;6.818;2023-04-03T07:47:24;7.07;;;1.73;;
6406;SDS011;3236;51.022;6.818;2023-04-03T07:49:51;2.53;;;1.48;;
6406;SDS011;3236;51.022;6.818;2023-04-03T07:52:20;3.17;;;1.20;;
6406;SDS011;3236;51.022;6.818;2023-04-03T07:54:50;6.53;;;2.30;;
6406;SDS011;3236;51.022;6.818;2023-04-03T07:57:20;0.95;;;0.93;;
6406;SDS011;3236;51.022;6.818;2023-04-03T07:59:47;2.00;;;1.35;;
6406;SDS011;3236;51.022;6.818;2023-04-03T08:02:14;7.93;;;1.30;;
6406;SDS011;3236;51.022;6.818;2023-04-03T08:04:41;2.53;;;1.38;;
6406;SDS011;3236;51.022;6.818;2023-04-03T08:07:08;2.03;;;1.40;;
6406;SDS011;3236;51.022;6.818;2023-04-03T08:09:38;3.03;;;1.60;;
6406;SDS011;3236;51.022;6.818;2023-04-03T08:12:05;6.45;;;1.42;;
6406;SDS011;3236;51.022;6.818;2023-04-03T08:14:33;6.82;;;1.73;;
6406;SDS011;3236;51.022;6.818;2023-04-03T08:17:00;4.07;;;1.60;;
6406;SDS011;3236;51.022;6.818;2023-04-03T08:19:29;2.70;;;1.20;;
6406;SDS011;3236;51.022;6.818;2023-04-03T08:21:56;4.25;;;2.60;;
6406;SDS011;3236;51.022;6.818;2023-04-03T08:24:25;5.82;;;1.20;;
6406;SDS011;3236;51.022;6.818;2023-04-03T08:26:54;6.28;;;1.20;;
6406;SDS011;3236;51.022;6.818;2023-04-03T08:29:21;4.47;;;1.38;;
6406;SDS011;3236;51.022;6.818;2023-04-03T08:31:49;2.78;;;0.77;;
6406;SDS011;3236;51.022;6.818;2023-04-03T08:34:16;4.25;;;2.00;;
6406;SDS011;3236;51.022;6.818;2023-04-03T08:36:44;3.35;;;1.48;;
6406;SDS011;3236;51.022;6.818;2023-04-03T08:39:12;2.58;;;1.35;;
6406;SDS011;3236;51.022;6.818;2023-04-03T08:41:43;4.78;;;1.15;;
6406;SDS011;3236;51.022;6.818;2023-04-03T08:44:17;6.47;;;1.58;;
6406;SDS011;3236;51.022;6.818;2023-04-03T08:46:56;3.70;;;1.40;;
6406;SDS011;3236;51.022;6.818;2023-04-03T08:49:35;8.20;;;1.50;;
6406;SDS011;3236;51.022;6.818;2023-04-03T08:52:12;3.33;;;1.30;;
6406;SDS011;3236;51.022;6.818;2023-04-03T08:54:47;2.33;;;1.00;;
6406;SDS011;3236;51.022;6.818;2023-04-03T08:57:17;2.60;;;1.25;;
6406;SDS011;3236;51.022;6.818;2023-04-03T08:59:50;3.20;;;1.77;;
6406;SDS011;3236;51.022;6.818;2023-04-03T09:02:24;2.17;;;0.93;;
6406;SDS011;3236;51.022;6.818;2023-04-03T09:04:54;2.17;;;0.93;;
6406;SDS011;3236;51.022;6.818;2023-04-03T09:07:23;6.18;;;0.93;;
6406;SDS011;3236;51.022;6.818;2023-04-03T09:09:58;3.00;;;1.52;;
6406;SDS011;3236;51.022;6.818;2023-04-03T09:12:30;4.47;;;1.15;;
6406;SDS011;3236;51.022;6.818;2023-04-03T09:15:05;4.93;;;1.02;;
6406;SDS011;3236;51.022;6.818;2023-04-03T09:17:40;6.22;;;1.13;;
6406;SDS011;3236;51.022;6.818;2023-04-03T09:20:18;4.35;;;0.90;;
6406;SDS011;3236;51.022;6.818;2023-04-03T09:22:51;1.77;;;1.00;;
6406;SDS011;3236;51.022;6.818;2023-04-03T09:25:20;4.13;;;1.30;;
6406;SDS011;3236;51.022;6.818;2023-04-03T09:27:50;3.35;;;1.08;;
6406;SDS011;3236;51.022;6.818;2023-04-03T09:30:20;1.10;;;1.00;;
6406;SDS011;3236;51.022;6.818;2023-04-03T09:32:49;1.80;;;1.17;;
6406;SDS011;3236;51.022;6.818;2023-04-03T09:35:22;4.10;;;1.10;;
6406;SDS011;3236;51.022;6.818;2023-04-03T09:37:51;4.03;;;1.80;;
6406;SDS011;3236;51.022;6.818;2023-04-03T09:40:29;3.00;;;1.27;;
6406;SDS011;3236;51.022;6.818;2023-04-03T09:43:01;4.47;;;1.10;;
6406;SDS011;3236;51.022;6.818;2023-04-03T09:45:31;3.55;;;1.58;;
6406;SDS011;3236;51.022;6.818;2023-04-03T09:48:04;4.88;;;1.25;;
6406;SDS011;3236;51.022;6.818;2023-04-03T09:50:33;4.40;;;0.98;;
6406;SDS011;3236;51.022;6.818;2023-04-03T09:53:07;1.33;;;1.02;;
6406;SDS011;3236;51.022;6.818;2023-04-03T09:55:56;3.38;;;1.20;;
6406;SDS011;3236;51.022;6.818;2023-04-03T09:58:27;2.95;;;0.85;;
6406;SDS011;3236;51.022;6.818;2023-04-03T10:01:01;3.55;;;1.00;;
6406;SDS011;3236;51.022;6.818;2023-04-03T10:03:30;3.38;;;1.13;;
6406;SDS011;3236;51.022;6.818;2023-04-03T10:05:59;4.35;;;1.02;;
6406;SDS011;3236;51.022;6.818;2023-04-03T10:08:28;6.80;;;1.60;;
6406;SDS011;3236;51.022;6.818;2023-04-03T10:11:07;5.35;;;1.10;;
6406;SDS011;3236;51.022;6.818;2023-04-03T10:13:52;3.53;;;1.20;;
6406;SDS011;3236;51.022;6.818;2023-04-03T10:16:25;1.48;;;1.02;;
6406;SDS011;3236;51.022;6.818;2023-04-03T10:19:10;2.50;;;1.30;;
6406;SDS011;3236;51.022;6.818;2023-04-03T10:21:58;2.55;;;1.10;;
6406;SDS011;3236;51.022;6.818;2023-04-03T10:24:34;3.17;;;1.33;;
6406;SDS011;3236;51.022;6.818;2023-04-03T10:27:21;1.40;;;1.10;;
6406;SDS011;3236;51.022;6.818;2023-04-03T10:29:59;2.95;;;1.00;;
6406;SDS011;3236;51.022;6.818;2023-04-03T10:32:42;0.93;;;0.80;;
6406;SDS011;3236;51.022;6.818;2023-04-03T10:35:18;5.40;;;1.40;;
6406;SDS011;3236;51.022;6.818;2023-04-03T10:37:59;2.47;;;0.98;;
6406;SDS011;3236;51.022;6.818;2023-04-03T10:40:34;4.95;;;1.15;;
6406;SDS011;3236;51.022;6.818;2023-04-03T10:43:12;5.20;;;1.35;;
6406;SDS011;3236;51.022;6.818;2023-04-03T10:45:54;3.45;;;1.05;;
6406;SDS011;3236;51.022;6.818;2023-04-03T10:48:35;2.15;;;1.38;;
6406;SDS011;3236;51.022;6.818;2023-04-03T10:51:12;1.88;;;0.85;;
6406;SDS011;3236;51.022;6.818;2023-04-03T10:53:55;3.00;;;1.30;;
6406;SDS011;3236;51.022;6.818;2023-04-03T10:56:30;4.85;;;2.03;;
6406;SDS011;3236;51.022;6.818;2023-04-03T10:59:03;3.10;;;1.38;;
6406;SDS011;3236;51.022;6.818;2023-04-03T11:04:12;1.55;;;0.93;;
6406;SDS011;3236;51.022;6.818;2023-04-03T11:06:43;1.27;;;1.15;;
6406;SDS011;3236;51.022;6.818;2023-04-03T11:09:16;3.65;;;1.42;;
6406;SDS011;3236;51.022;6.818;2023-04-03T11:11:49;3.28;;;1.05;;
6406;SDS011;3236;51.022;6.818;2023-04-03T11:14:25;3.50;;;1.05;;
6406;SDS011;3236;51.022;6.818;2023-04-03T11:17:01;3.07;;;1.20;;
6406;SDS011;3236;51.022;6.818;2023-04-03T11:19:38;3.90;;;1.00;;
6406;SDS011;3236;51.022;6.818;2023-04-03T11:24:59;2.05;;;1.27;;
6406;SDS011;3236;51.022;6.818;2023-04-03T11:27:38;1.85;;;0.80;;
6406;SDS011;3236;51.022;6.818;2023-04-03T11:30:13;3.85;;;1.10;;
6406;SDS011;3236;51.022;6.818;2023-04-03T11:32:59;1.58;;;0.90;;
6406;SDS011;3236;51.022;6.818;2023-04-03T11:35:43;1.58;;;1.10;;
6406;SDS011;3236;51.022;6.818;2023-04-03T11:38:16;5.45;;;1.27;;
6406;SDS011;3236;51.022;6.818;2023-04-03T11:40:48;1.58;;;0.80;;
6406;SDS011;3236;51.022;6.818;2023-04-03T11:43:20;4.82;;;0.90;;
6406;SDS011;3236;51.022;6.818;2023-04-03T11:45:52;1.80;;;0.98;;
6406;SDS011;3236;51.022;6.818;2023-04-03T12:06:48;1.42;;;1.00;;
6406;SDS011;3236;51.022;6.818;2023-04-03T12:09:29;5.30;;;1.08;;
6406;SDS011;3236;51.022;6.818;2023-04-03T12:14:54;2.50;;;0.88;;
6406;SDS011;3236;51.022;6.818;2023-04-03T12:17:23;2.45;;;0.73;;
6406;SDS011;3236;51.022;6.818;2023-04-03T12:19:56;1.70;;;0.80;;
6406;SDS011;3236;51.022;6.818;2023-04-03T12:22:24;2.15;;;0.93;;
6406;SDS011;3236;51.022;6.818;2023-04-03T12:24:53;1.88;;;0.90;;
6406;SDS011;3236;51.022;6.818;2023-04-03T12:27:33;1.52;;;1.00;;
6406;SDS011;3236;51.022;6.818;2023-04-03T12:30:23;3.80;;;1.02;;
6406;SDS011;3236;51.022;6.818;2023-04-03T12:33:20;1.38;;;0.85;;
6406;SDS011;3236;51.022;6.818;2023-04-03T12:36:04;1.05;;;0.73;;
6406;SDS011;3236;51.022;6.818;2023-04-03T12:38:47;2.08;;;0.70;;
6406;SDS011;3236;51.022;6.818;2023-04-03T12:41:43;1.20;;;0.80;;
6406;SDS011;3236;51.022;6.818;2023-04-03T12:44:25;1.25;;;0.80;;
6406;SDS011;3236;51.022;6.818;2023-04-03T12:47:25;5.00;;;1.17;;
6406;SDS011;3236;51.022;6.818;2023-04-03T12:49:54;1.33;;;0.70;;
6406;SDS011;3236;51.022;6.818;2023-04-03T12:52:28;3.50;;;1.10;;
6406;SDS011;3236;51.022;6.818;2023-04-03T12:55:07;2.97;;;1.00;;
6406;SDS011;3236;51.022;6.818;2023-04-03T12:57:44;1.52;;;0.60;;
6406;SDS011;3236;51.022;6.818;2023-04-03T13:00:25;2.60;;;1.00;;
6406;SDS011;3236;51.022;6.818;2023-04-03T13:02:57;1.83;;;0.90;;
6406;SDS011;3236;51.022;6.818;2023-04-03T13:05:25;1.65;;;0.80;;
6406;SDS011;3236;51.022;6.818;2023-04-03T13:07:54;1.85;;;1.00;;
6406;SDS011;3236;51.022;6.818;2023-04-03T13:10:28;1.27;;;0.80;;
6406;SDS011;3236;51.022;6.818;2023-04-03T13:12:57;2.72;;;0.82;;
6406;SDS011;3236;51.022;6.818;2023-04-03T13:15:30;1.38;;;1.05;;
6406;SDS011;3236;51.022;6.818;2023-04-03T13:20:48;0.70;;;0.70;;
6406;SDS011;3236;51.022;6.818;2023-04-03T13:23:16;2.70;;;1.20;;
6406;SDS011;3236;51.022;6.818;2023-04-03T13:25:48;2.22;;;1.27;;
6406;SDS011;3236;51.022;6.818;2023-04-03T13:28:18;1.35;;;0.82;;
6406;SDS011;3236;51.022;6.818;2023-04-03T13:33:54;1.10;;;0.90;;
6406;SDS011;3236;51.022;6.818;2023-04-03T13:36:26;1.27;;;0.73;;
6406;SDS011;3236;51.022;6.818;2023-04-03T13:38:58;1.55;;;0.90;;
6406;SDS011;3236;51.022;6.818;2023-04-03T13:41:29;2.50;;;1.33;;
6406;SDS011;3236;51.022;6.818;2023-04-03T13:46:48;2.88;;;0.98;;
6406;SDS011;3236;51.022;6.818;2023-04-03T13:49:18;2.47;;;1.13;;
6406;SDS011;3236;51.022;6.818;2023-04-03T13:51:46;2.35;;;1.00;;
6406;SDS011;3236;51.022;6.818;2023-04-03T13:54:17;3.10;;;1.10;;
6406;SDS011;3236;51.022;6.818;2023-04-03T13:56:47;1.85;;;0.90;;
6406;SDS011;3236;51.022;6.818;2023-04-03T13:59:21;1.38;;;0.85;;
6406;SDS011;3236;51.022;6.818;2023-04-03T14:01:54;3.15;;;1.23;;
6406;SDS011;3236;51.022;6.818;2023-04-03T14:04:35;1.15;;;0.95;;
6406;SDS011;3236;51.022;6.818;2023-04-03T14:07:15;2.88;;;1.08;;
6406;SDS011;3236;51.022;6.818;2023-04-03T14:09:46;4.13;;;0.98;;
6406;SDS011;3236;51.022;6.818;2023-04-03T14:12:15;4.72;;;1.10;;
6406;SDS011;3236;51.022;6.818;2023-04-03T14:14:46;2.70;;;1.10;;
6406;SDS011;3236;51.022;6.818;2023-04-03T14:17:16;1.95;;;0.73;;
6406;SDS011;3236;51.022;6.818;2023-04-03T14:22:22;2.75;;;1.08;;
6406;SDS011;3236;51.022;6.818;2023-04-03T14:24:54;1.58;;;0.98;;
6406;SDS011;3236;51.022;6.818;2023-04-03T14:27:23;3.05;;;1.05;;
6406;SDS011;3236;51.022;6.818;2023-04-03T14:30:11;2.38;;;1.00;;
6406;SDS011;3236;51.022;6.818;2023-04-03T14:32:42;1.77;;;0.95;;
6406;SDS011;3236;51.022;6.818;2023-04-03T14:35:10;3.38;;;1.08;;
6406;SDS011;3236;51.022;6.818;2023-04-03T14:37:39;2.63;;;0.93;;
6406;SDS011;3236;51.022;6.818;2023-04-03T14:40:07;4.45;;;0.90;;
6406;SDS011;3236;51.022;6.818;2023-04-03T14:42:45;3.13;;;0.95;;
6406;SDS011;3236;51.022;6.818;2023-04-03T14:45:17;2.55;;;1.10;;
6406;SDS011;3236;51.022;6.818;2023-04-03T14:47:46;2.67;;;0.95;;
6406;SDS011;3236;51.022;6.818;2023-04-03T14:50:17;1.50;;;0.90;;
6406;SDS011;3236;51.022;6.818;2023-04-03T14:52:47;2.30;;;1.15;;
6406;SDS011;3236;51.022;6.818;2023-04-03T14:55:19;1.75;;;1.15;;
6406;SDS011;3236;51.022;6.818;2023-04-03T14:57:47;4.00;;;1.45;;
6406;SDS011;3236;51.022;6.818;2023-04-03T15:00:16;3.50;;;1.63;;
6406;SDS011;3236;51.022;6.818;2023-04-03T15:02:50;3.50;;;1.15;;
6406;SDS011;3236;51.022;6.818;2023-04-03T15:05:20;3.22;;;1.10;;
6406;SDS011;3236;51.022;6.818;2023-04-03T15:07:52;4.53;;;1.00;;
6406;SDS011;3236;51.022;6.818;2023-04-03T15:10:22;3.80;;;1.20;;
6406;SDS011;3236;51.022;6.818;2023-04-03T15:12:58;1.73;;;1.17;;
6406;SDS011;3236;51.022;6.818;2023-04-03T15:15:27;2.08;;;1.20;;
6406;SDS011;3236;51.022;6.818;2023-04-03T15:17:59;2.00;;;1.13;;
6406;SDS011;3236;51.022;6.818;2023-04-03T15:20:27;3.60;;;1.73;;
6406;SDS011;3236;51.022;6.818;2023-04-03T15:22:55;2.53;;;1.00;;
6406;SDS011;3236;51.022;6.818;2023-04-03T15:25:26;1.70;;;0.85;;
6406;SDS011;3236;51.022;6.818;2023-04-03T15:27:55;2.70;;;1.38;;
6406;SDS011;3236;51.022;6.818;2023-04-03T15:30:26;2.53;;;1.10;;
6406;SDS011;3236;51.022;6.818;2023-04-03T15:32:57;3.85;;;0.95;;
6406;SDS011;3236;51.022;6.818;2023-04-03T15:35:25;4.53;;;1.50;;
6406;SDS011;3236;51.022;6.818;2023-04-03T15:37:54;4.50;;;1.45;;
6406;SDS011;3236;51.022;6.818;2023-04-03T15:40:27;3.63;;;0.98;;
6406;SDS011;3236;51.022;6.818;2023-04-03T15:42:57;3.72;;;1.38;;
6406;SDS011;3236;51.022;6.818;2023-04-03T15:45:34;1.20;;;0.90;;
6406;SDS011;3236;51.022;6.818;2023-04-03T15:48:09;3.63;;;1.25;;
6406;SDS011;3236;51.022;6.818;2023-04-03T15:50:39;3.17;;;1.33;;
6406;SDS011;3236;51.022;6.818;2023-04-03T15:53:07;4.55;;;1.27;;
6406;SDS011;3236;51.022;6.818;2023-04-03T15:55:34;2.20;;;1.08;;
6406;SDS011;3236;51.022;6.818;2023-04-03T15:58:04;3.67;;;1.35;;
6406;SDS011;3236;51.022;6.818;2023-04-03T16:00:31;2.60;;;1.50;;
6406;SDS011;3236;51.022;6.818;2023-04-03T16:02:59;3.95;;;1.30;;
6406;SDS011;3236;51.022;6.818;2023-04-03T16:05:32;1.73;;;1.20;;
6406;SDS011;3236;51.022;6.818;2023-04-03T16:08:05;5.27;;;1.70;;
6406;SDS011;3236;51.022;6.818;2023-04-03T16:10:36;1.30;;;1.15;;
6406;SDS011;3236;51.022;6.818;2023-04-03T16:13:13;3.42;;;1.48;;
6406;SDS011;3236;51.022;6.818;2023-04-03T16:15:56;3.38;;;1.35;;
6406;SDS011;3236;51.022;6.818;2023-04-03T16:18:35;2.20;;;1.00;;